EmailTwitter


Surface observations / United Kingdom / EGHI (03865)

Regions: Quebec | Canada | USA | Europe | France | UK | Elsewhere
Station
Display
Info & Location for EGHI (03865) | Help decoding METAR

Weather Conditions observed on 2017/07/21 at 18:20 UTC at SOUTHAMPTON WX C, UK (EGHI)

Sky conditions: partly cloudy.

Obstruction(s) to Vision: light rain.

Temperature: 15.0 Celsius.

Dewpoint: 14.0 Celsius.

Relative Humidity: 94%

Winds: Southeast at 17 km/h or 9 knots.

Mean Sea level Pressure: 100.50 kilopascals.

Horizontal visibility: 4.35 statute miles or 6.96 kilometers.

Height of the Ceiling: 1097 metres ( 3600 feet ).

Coded METAR:

EGHI 211820Z 15009KT 120V200 7000 -RA FEW012 SCT024 BKN036 15/14 Q1005=